createdAt,value
2023-11-26T00:00:15.137Z,100274.47
2023-11-26T00:02:43.506Z,100273.66
2023-11-26T00:05:11.745Z,100280.38
2023-11-26T00:07:41.218Z,100282.06
2023-11-26T00:10:12.442Z,100278.69
2023-11-26T00:12:40.472Z,100277.84
2023-11-26T00:15:10.080Z,100283.75
2023-11-26T00:17:38.343Z,100274.50
2023-11-26T00:20:08.099Z,100275.34
2023-11-26T00:22:36.033Z,100287.13
2023-11-26T00:25:06.010Z,100271.13
2023-11-26T00:27:34.673Z,100275.38
2023-11-26T00:30:02.706Z,100270.28
2023-11-26T00:32:32.287Z,100264.38
2023-11-26T00:35:02.837Z,100272.78
2023-11-26T00:37:30.809Z,100273.59
2023-11-26T00:39:59.390Z,100277.84
2023-11-26T00:42:28.807Z,100262.63
2023-11-26T00:44:56.814Z,100271.13
2023-11-26T00:47:25.051Z,100270.19
2023-11-26T00:49:53.258Z,100274.47
2023-11-26T00:52:21.262Z,100266.88
2023-11-26T00:54:49.370Z,100272.75
2023-11-26T00:57:18.721Z,100272.75
2023-11-26T00:59:48.500Z,100269.41
2023-11-26T01:02:16.811Z,100282.84
2023-11-26T01:04:45.074Z,100269.31
2023-11-26T01:07:13.696Z,100274.44
2023-11-26T01:09:41.830Z,100279.44
2023-11-26T01:12:14.727Z,100281.03
2023-11-26T01:14:42.882Z,100264.06
2023-11-26T01:17:12.302Z,100279.25
2023-11-26T01:19:40.581Z,100286.03
2023-11-26T01:22:10.537Z,100285.13
2023-11-26T01:24:38.582Z,100278.41
2023-11-26T01:27:07.179Z,100274.91
2023-11-26T01:29:35.354Z,100282.47
2023-11-26T01:32:03.323Z,100275.66
2023-11-26T01:34:32.868Z,100286.63
2023-11-26T01:37:01.351Z,100276.44
2023-11-26T01:39:29.342Z,100274.84
2023-11-26T01:41:58.124Z,100291.66
2023-11-26T01:44:28.327Z,100289.84
2023-11-26T01:46:57.237Z,100288.28
2023-11-26T01:49:26.491Z,100287.38
2023-11-26T01:51:56.533Z,100295.75
2023-11-26T01:54:24.530Z,100294.81
2023-11-26T01:56:52.639Z,100288.06
2023-11-26T01:59:20.839Z,100293.16
2023-11-26T02:01:49.009Z,100296.44
2023-11-26T02:04:17.278Z,100290.59
2023-11-26T02:06:45.421Z,100288.03
2023-11-26T02:09:18.162Z,100288.81
2023-11-26T02:11:46.266Z,100287.97
2023-11-26T02:14:14.794Z,100290.66
2023-11-26T02:16:47.925Z,100299.06
2023-11-26T02:19:26.709Z,100292.28
2023-11-26T02:21:55.063Z,100291.34
2023-11-26T02:24:28.658Z,100291.50
2023-11-26T02:26:58.854Z,100306.59
2023-11-26T02:29:26.811Z,100282.97
2023-11-26T02:31:54.895Z,100298.22
2023-11-26T02:34:25.805Z,100286.38
2023-11-26T02:36:55.144Z,100308.34
2023-11-26T02:39:24.676Z,100294.66
2023-11-26T02:41:52.946Z,100307.28
2023-11-26T02:44:22.294Z,100305.72
2023-11-26T02:46:50.405Z,100323.41
2023-11-26T02:49:18.495Z,100329.34
2023-11-26T02:51:46.687Z,100318.25
2023-11-26T02:54:14.745Z,100325.69
2023-11-26T02:56:45.066Z,100330.97
2023-11-26T02:59:13.182Z,100329.28
2023-11-26T03:01:42.624Z,100325.97
2023-11-26T03:04:11.449Z,100339.44
2023-11-26T03:06:42.484Z,100334.44
2023-11-26T03:09:32.143Z,100339.59
2023-11-26T03:12:17.855Z,100333.59
2023-11-26T03:14:47.715Z,100337.03
2023-11-26T03:17:17.341Z,100326.06
2023-11-26T03:19:47.127Z,100344.59
2023-11-26T03:22:15.247Z,100339.53
2023-11-26T03:24:44.009Z,100331.06
2023-11-26T03:27:14.185Z,100351.31
2023-11-26T03:29:42.594Z,100351.31
2023-11-26T03:32:10.613Z,100347.91
2023-11-26T03:34:40.359Z,100348.63
2023-11-26T03:37:08.433Z,100352.00
2023-11-26T03:39:41.742Z,100358.72
2023-11-26T03:42:19.817Z,100369.56
2023-11-26T03:44:54.306Z,100347.56
2023-11-26T03:47:26.721Z,100364.50
2023-11-26T03:49:56.181Z,100360.34
2023-11-26T03:52:24.835Z,100356.25
2023-11-26T03:54:52.955Z,100359.66
2023-11-26T03:57:21.604Z,100375.81
2023-11-26T03:59:49.825Z,100373.31
2023-11-26T04:02:18.037Z,100366.59
2023-11-26T04:04:46.477Z,100369.25
2023-11-26T04:07:15.946Z,100376.00
2023-11-26T04:09:43.875Z,100359.16
2023-11-26T04:12:11.946Z,100369.31
2023-11-26T04:14:40.798Z,100367.63
2023-11-26T04:17:08.877Z,100366.84
2023-11-26T04:19:36.936Z,100376.09
2023-11-26T04:22:05.265Z,100374.31
2023-11-26T04:24:34.756Z,100372.69
2023-11-26T04:27:04.877Z,100387.16
2023-11-26T04:29:32.998Z,100386.25
2023-11-26T04:32:04.020Z,100384.63
2023-11-26T04:34:31.965Z,100373.56
2023-11-26T04:36:59.950Z,100382.84
2023-11-26T04:39:28.236Z,100380.25
2023-11-26T04:41:57.681Z,100387.13
2023-11-26T04:44:28.329Z,100369.41
2023-11-26T04:46:56.610Z,100388.06
2023-11-26T04:49:25.091Z,100382.13
2023-11-26T04:51:53.564Z,100392.22
2023-11-26T04:54:22.634Z,100375.34
2023-11-26T04:56:50.989Z,100394.78
2023-11-26T04:59:20.442Z,100372.00
2023-11-26T05:01:55.435Z,100381.31
2023-11-26T05:04:24.508Z,100383.75
2023-11-26T05:06:53.534Z,100386.38
2023-11-26T05:09:22.225Z,100373.63
2023-11-26T05:11:50.359Z,100383.72
2023-11-26T05:14:18.556Z,100360.19
2023-11-26T05:16:48.102Z,100374.53
2023-11-26T05:19:16.507Z,100382.97
2023-11-26T05:21:44.782Z,100372.81
2023-11-26T05:24:12.834Z,100366.88
2023-11-26T05:26:40.802Z,100385.53
2023-11-26T05:29:09.690Z,100390.59
2023-11-26T05:31:37.746Z,100387.97
2023-11-26T05:34:07.514Z,100388.72
2023-11-26T05:36:40.171Z,100400.63
2023-11-26T05:39:09.683Z,100400.56
2023-11-26T05:41:37.677Z,100411.63
2023-11-26T05:44:06.090Z,100404.91
2023-11-26T05:46:34.047Z,100391.28
2023-11-26T05:49:02.196Z,100406.53
2023-11-26T05:51:31.727Z,100398.97
2023-11-26T05:53:59.727Z,100425.13
2023-11-26T05:56:27.649Z,100420.84
2023-11-26T05:58:56.611Z,100415.72
2023-11-26T06:01:25.759Z,100432.66
2023-11-26T06:03:55.864Z,100444.44
2023-11-26T06:06:24.654Z,100440.22
2023-11-26T06:08:53.926Z,100444.47
2023-11-26T06:11:21.816Z,100438.44
2023-11-26T06:13:50.010Z,100450.34
2023-11-26T06:16:18.062Z,100440.16
2023-11-26T06:18:46.085Z,100459.56
2023-11-26T06:21:15.983Z,100449.44
2023-11-26T06:23:43.929Z,100434.16
2023-11-26T06:26:17.770Z,100451.97
2023-11-26T06:28:45.752Z,100463.75
2023-11-26T06:31:21.587Z,100467.13
2023-11-26T06:33:49.913Z,100461.13
2023-11-26T06:36:23.275Z,100461.22
2023-11-26T06:38:52.178Z,100464.53
2023-11-26T06:41:26.291Z,100480.59
2023-11-26T06:43:55.160Z,100468.00
2023-11-26T06:46:24.467Z,100456.06
2023-11-26T06:48:55.923Z,100483.13
2023-11-26T06:51:24.553Z,100474.59
2023-11-26T06:53:53.530Z,100474.59
2023-11-26T06:56:21.877Z,100488.22
2023-11-26T06:58:51.331Z,100472.16
2023-11-26T07:01:19.440Z,100467.91
2023-11-26T07:03:49.116Z,100483.16
2023-11-26T07:06:17.644Z,100489.03
2023-11-26T07:08:45.691Z,100493.22
2023-11-26T07:11:23.815Z,100480.47
2023-11-26T07:13:57.387Z,100502.38
2023-11-26T07:16:26.424Z,100503.16
2023-11-26T07:18:54.554Z,100492.09
2023-11-26T07:21:22.748Z,100502.25
2023-11-26T07:23:52.077Z,100513.19
2023-11-26T07:26:22.583Z,100518.19
2023-11-26T07:28:52.695Z,100511.31
2023-11-26T07:31:21.916Z,100502.91
2023-11-26T07:33:49.946Z,100499.59
2023-11-26T07:36:24.323Z,100512.28
2023-11-26T07:38:53.329Z,100513.81
2023-11-26T07:41:22.150Z,100500.38
2023-11-26T07:43:50.848Z,100513.97
2023-11-26T07:46:22.588Z,100524.16
2023-11-26T07:48:51.406Z,100524.09
2023-11-26T07:51:20.067Z,100522.50
2023-11-26T07:53:48.273Z,100520.91
2023-11-26T07:56:17.863Z,100516.56
2023-11-26T07:58:46.609Z,100516.63
2023-11-26T08:01:15.048Z,100527.63
2023-11-26T08:03:44.559Z,100527.69
2023-11-26T08:06:15.094Z,100515.72
2023-11-26T08:08:45.305Z,100520.97
2023-11-26T08:11:14.512Z,100530.31
2023-11-26T08:13:43.345Z,100522.63
2023-11-26T08:16:15.361Z,100535.44
2023-11-26T08:18:45.115Z,100526.16
2023-11-26T08:21:13.179Z,100539.75
2023-11-26T08:23:45.545Z,100533.03
2023-11-26T08:26:16.856Z,100543.22
2023-11-26T08:28:45.349Z,100538.97
2023-11-26T08:31:13.674Z,100533.19
2023-11-26T08:33:45.023Z,100551.00
2023-11-26T08:36:19.742Z,100530.78
2023-11-26T08:38:48.650Z,100552.75
2023-11-26T08:41:21.887Z,100550.19
2023-11-26T08:43:52.441Z,100535.84
2023-11-26T08:46:22.773Z,100546.00
2023-11-26T08:48:53.821Z,100553.69
2023-11-26T08:51:26.863Z,100560.38
2023-11-26T08:53:55.111Z,100561.31
2023-11-26T08:56:23.073Z,100563.91
2023-11-26T08:58:51.015Z,100558.75
2023-11-26T09:01:19.074Z,100554.63
2023-11-26T09:03:47.543Z,100552.88
2023-11-26T09:06:15.672Z,100565.66
2023-11-26T09:08:50.549Z,100563.94
2023-11-26T09:11:18.712Z,100571.59
2023-11-26T09:13:47.370Z,100560.59
2023-11-26T09:16:17.516Z,100574.16
2023-11-26T09:18:45.746Z,100568.16
2023-11-26T09:21:13.984Z,100580.88
2023-11-26T09:23:46.419Z,100571.59
2023-11-26T09:26:15.594Z,100585.94
2023-11-26T09:28:45.545Z,100589.34
2023-11-26T09:31:15.112Z,100569.88
2023-11-26T09:33:43.207Z,100556.38
2023-11-26T09:36:11.926Z,100593.56
2023-11-26T09:38:40.444Z,100595.34
2023-11-26T09:41:10.356Z,100610.59
2023-11-26T09:43:39.255Z,100608.91
2023-11-26T09:46:07.676Z,100612.25
2023-11-26T09:48:36.128Z,100602.94
2023-11-26T09:51:07.034Z,100608.94
2023-11-26T09:53:36.230Z,100612.34
2023-11-26T09:56:05.618Z,100610.66
2023-11-26T09:58:44.222Z,100623.44
2023-11-26T10:01:12.744Z,100615.84
2023-11-26T10:04:00.755Z,100604.03
2023-11-26T10:06:29.590Z,100625.97
2023-11-26T10:08:59.096Z,100606.50
2023-11-26T10:11:28.813Z,100617.53
2023-11-26T10:13:58.734Z,100622.53
2023-11-26T10:16:33.413Z,100620.84
2023-11-26T10:19:03.371Z,100632.59
2023-11-26T10:21:32.113Z,100618.28
2023-11-26T10:24:01.893Z,100593.72
2023-11-26T10:26:30.483Z,100606.44
2023-11-26T10:29:04.966Z,100615.75
2023-11-26T10:31:33.135Z,100614.03
2023-11-26T10:34:10.368Z,100615.59
2023-11-26T10:36:38.518Z,100604.53
2023-11-26T10:39:10.441Z,100619.84
2023-11-26T10:41:39.640Z,100618.13
2023-11-26T10:44:10.726Z,100621.44
2023-11-26T10:46:39.232Z,100613.00
2023-11-26T10:49:16.024Z,100637.59
2023-11-26T10:51:49.146Z,100635.91
2023-11-26T10:54:25.754Z,100642.69
2023-11-26T10:56:58.378Z,100646.09
2023-11-26T10:59:31.446Z,100627.50
2023-11-26T11:02:04.988Z,100645.38
2023-11-26T11:04:38.181Z,100633.56
2023-11-26T11:07:06.873Z,100650.50
2023-11-26T11:09:41.489Z,100641.94
2023-11-26T11:12:13.193Z,100640.97
2023-11-26T11:14:43.278Z,100643.63
2023-11-26T11:17:11.579Z,100641.94
2023-11-26T11:19:49.764Z,100646.28
2023-11-26T11:22:18.446Z,100642.13
2023-11-26T11:24:46.492Z,100639.59
2023-11-26T11:27:14.943Z,100654.75
2023-11-26T11:29:44.781Z,100636.19
2023-11-26T11:32:12.719Z,100632.00
2023-11-26T11:34:40.789Z,100639.63
2023-11-26T11:37:10.107Z,100627.84
2023-11-26T11:39:48.458Z,100622.69
2023-11-26T11:42:21.851Z,100634.63
2023-11-26T11:44:53.087Z,100637.13
2023-11-26T11:47:44.554Z,100632.00
2023-11-26T11:50:16.283Z,100635.44
2023-11-26T11:52:46.212Z,100626.16
2023-11-26T11:55:37.466Z,100647.38
2023-11-26T11:58:14.652Z,100638.88
2023-11-26T12:00:46.175Z,100648.97
2023-11-26T12:03:19.044Z,100650.63
2023-11-26T12:05:47.724Z,100637.13
2023-11-26T12:08:16.750Z,100647.25
2023-11-26T12:10:45.731Z,100639.66
2023-11-26T12:13:14.188Z,100652.34
2023-11-26T12:15:57.784Z,100639.66
2023-11-26T12:18:26.193Z,100653.19
2023-11-26T12:20:54.187Z,100648.13
2023-11-26T12:23:37.295Z,100658.31
2023-11-26T12:26:06.338Z,100651.53
2023-11-26T12:28:43.387Z,100664.28
2023-11-26T12:31:13.654Z,100665.97
2023-11-26T12:33:44.854Z,100661.69
2023-11-26T12:36:13.945Z,100658.22
2023-11-26T12:38:43.441Z,100653.19
2023-11-26T12:41:12.397Z,100661.59
2023-11-26T12:43:41.428Z,100653.13
2023-11-26T12:46:10.800Z,100672.63
2023-11-26T12:48:40.732Z,100663.31
2023-11-26T12:51:09.653Z,100660.75
2023-11-26T12:53:37.912Z,100663.28
2023-11-26T12:56:06.431Z,100660.75
2023-11-26T12:58:35.798Z,100665.84
2023-11-26T13:01:04.180Z,100658.09
2023-11-26T13:03:32.381Z,100650.50
2023-11-26T13:06:09.951Z,100661.53
2023-11-26T13:08:38.052Z,100670.81
2023-11-26T13:11:07.669Z,100660.66
2023-11-26T13:13:36.207Z,100671.56
2023-11-26T13:16:05.586Z,100672.38
2023-11-26T13:18:33.885Z,100671.53
2023-11-26T13:21:07.118Z,100665.56
2023-11-26T13:23:36.697Z,100673.19
2023-11-26T13:26:07.582Z,100668.94
2023-11-26T13:28:35.775Z,100677.34
2023-11-26T13:31:03.756Z,100668.06
2023-11-26T13:33:32.467Z,100673.16
2023-11-26T13:36:01.606Z,100675.69
2023-11-26T13:38:29.593Z,100669.78
2023-11-26T13:40:58.951Z,100672.34
2023-11-26T13:43:27.286Z,100677.41
2023-11-26T13:45:56.414Z,100679.84
2023-11-26T13:48:26.172Z,100674.75
2023-11-26T13:50:54.646Z,100684.09
2023-11-26T13:53:24.634Z,100681.56
2023-11-26T13:55:54.696Z,100675.56
2023-11-26T13:58:24.403Z,100682.34
2023-11-26T14:00:52.392Z,100689.09
2023-11-26T14:03:20.661Z,100692.47
2023-11-26T14:05:49.090Z,100703.38
2023-11-26T14:08:17.030Z,100684.81
2023-11-26T14:10:46.380Z,100706.78
2023-11-26T14:13:19.033Z,100704.28
2023-11-26T14:15:50.611Z,100698.41
2023-11-26T14:18:19.431Z,100696.66
2023-11-26T14:20:47.342Z,100715.16
2023-11-26T14:23:15.311Z,100699.19
2023-11-26T14:25:44.911Z,100706.78
2023-11-26T14:28:13.047Z,100716.91
2023-11-26T14:30:43.766Z,100708.38
2023-11-26T14:33:13.583Z,100714.28
2023-11-26T14:35:44.398Z,100721.09
2023-11-26T14:38:13.767Z,100715.94
2023-11-26T14:40:41.765Z,100721.03
2023-11-26T14:43:09.920Z,100723.56
2023-11-26T14:45:38.022Z,100739.69
2023-11-26T14:48:08.526Z,100745.66
2023-11-26T14:50:37.926Z,100749.03
2023-11-26T14:53:06.005Z,100751.50
2023-11-26T14:55:34.066Z,100745.59
2023-11-26T14:58:02.392Z,100747.28
2023-11-26T15:00:30.700Z,100739.69
2023-11-26T15:02:59.280Z,100752.34
2023-11-26T15:05:27.301Z,100745.59
2023-11-26T15:07:57.639Z,100753.28
2023-11-26T15:10:27.140Z,100751.56
2023-11-26T15:12:56.160Z,100749.88
2023-11-26T15:15:24.191Z,100749.81
2023-11-26T15:17:52.863Z,100742.13
2023-11-26T15:20:22.333Z,100736.28
2023-11-26T15:22:52.320Z,100754.03
2023-11-26T15:25:21.729Z,100749.03
2023-11-26T15:27:49.754Z,100738.91
2023-11-26T15:30:18.108Z,100759.25
2023-11-26T15:32:46.165Z,100757.56
2023-11-26T15:35:14.200Z,100758.34
2023-11-26T15:37:42.386Z,100752.44
2023-11-26T15:40:12.998Z,100761.81
2023-11-26T15:42:42.858Z,100768.53
2023-11-26T15:45:14.449Z,100764.31
2023-11-26T15:47:44.550Z,100760.97
2023-11-26T15:50:14.113Z,100744.84
2023-11-26T15:52:42.572Z,100768.44
2023-11-26T15:55:13.246Z,100759.19
2023-11-26T15:57:43.285Z,100760.03
2023-11-26T16:00:14.317Z,100778.72
2023-11-26T16:02:43.570Z,100766.75
2023-11-26T16:05:12.836Z,100767.69
2023-11-26T16:07:40.926Z,100766.00
2023-11-26T16:10:10.200Z,100760.03
2023-11-26T16:12:38.369Z,100770.22
2023-11-26T16:15:11.624Z,100775.31
2023-11-26T16:17:43.185Z,100779.53
2023-11-26T16:20:12.925Z,100769.44
2023-11-26T16:22:41.025Z,100781.28
2023-11-26T16:25:11.101Z,100777.88
2023-11-26T16:27:39.567Z,100766.75
2023-11-26T16:30:10.379Z,100777.84
2023-11-26T16:32:38.371Z,100783.81
2023-11-26T16:35:07.089Z,100771.06
2023-11-26T16:37:35.251Z,100782.03
2023-11-26T16:40:05.933Z,100785.50
2023-11-26T16:42:34.961Z,100777.00
2023-11-26T16:45:04.182Z,100778.75
2023-11-26T16:47:36.223Z,100778.81
2023-11-26T16:50:06.960Z,100772.75
2023-11-26T16:52:34.893Z,100777.00
2023-11-26T16:55:02.855Z,100793.91
2023-11-26T16:57:31.073Z,100777.81
2023-11-26T16:59:59.027Z,100785.47
2023-11-26T17:02:27.297Z,100796.44
2023-11-26T17:04:56.800Z,100784.53
2023-11-26T17:07:24.821Z,100795.69
2023-11-26T17:09:52.803Z,100789.59
2023-11-26T17:12:20.988Z,100790.44
2023-11-26T17:14:49.053Z,100798.06
2023-11-26T17:17:17.085Z,100809.94
2023-11-26T17:19:47.012Z,100804.81
2023-11-26T17:22:16.446Z,100789.53
2023-11-26T17:24:44.373Z,100794.66
2023-11-26T17:27:12.584Z,100793.81
2023-11-26T17:29:40.479Z,100771.75
2023-11-26T17:32:09.019Z,100793.00
2023-11-26T17:34:37.142Z,100807.34
2023-11-26T17:37:05.064Z,100806.47
2023-11-26T17:39:34.416Z,100816.59
2023-11-26T17:42:02.508Z,100787.81
2023-11-26T17:44:30.616Z,100787.75
2023-11-26T17:46:58.521Z,100816.59
2023-11-26T17:49:28.136Z,100801.34
2023-11-26T17:51:56.206Z,100786.88
2023-11-26T17:54:24.200Z,100806.34
2023-11-26T17:56:53.965Z,100813.97
2023-11-26T17:59:22.021Z,100819.06
2023-11-26T18:01:50.221Z,100803.03
2023-11-26T18:04:19.348Z,100816.66
2023-11-26T18:06:47.441Z,100814.78
2023-11-26T18:09:15.806Z,100824.06
2023-11-26T18:11:43.921Z,100810.53
2023-11-26T18:14:13.196Z,100822.44
2023-11-26T18:16:41.824Z,100819.75
2023-11-26T18:19:10.094Z,100821.44
2023-11-26T18:21:43.245Z,100834.09
2023-11-26T18:24:11.613Z,100833.19
2023-11-26T18:26:39.866Z,100819.50
2023-11-26T18:29:11.624Z,100833.94
2023-11-26T18:31:43.987Z,100811.97
2023-11-26T18:34:12.056Z,100816.97
2023-11-26T18:36:40.672Z,100821.19
2023-11-26T18:39:10.783Z,100826.44
2023-11-26T18:41:38.732Z,100827.16
2023-11-26T18:44:08.636Z,100812.69
2023-11-26T18:46:37.935Z,100826.31
2023-11-26T18:49:07.283Z,100824.56
2023-11-26T18:51:35.462Z,100828.00
2023-11-26T18:54:04.282Z,100828.97
2023-11-26T18:56:32.242Z,100841.56
2023-11-26T18:59:07.667Z,100842.38
2023-11-26T19:01:36.222Z,100822.88
2023-11-26T19:04:04.428Z,100842.41
2023-11-26T19:06:34.163Z,100842.44
2023-11-26T19:09:04.031Z,100817.03
2023-11-26T19:11:33.661Z,100822.03
2023-11-26T19:14:02.431Z,100833.03
2023-11-26T19:16:30.460Z,100824.75
2023-11-26T19:18:58.678Z,100835.72
2023-11-26T19:21:27.536Z,100834.03
2023-11-26T19:23:57.133Z,100832.34
2023-11-26T19:26:25.600Z,100837.41
2023-11-26T19:28:54.045Z,100834.75
2023-11-26T19:31:26.511Z,100835.69
2023-11-26T19:33:54.845Z,100832.25
2023-11-26T19:36:24.505Z,100834.88
2023-11-26T19:38:53.271Z,100828.84
2023-11-26T19:41:22.822Z,100838.13
2023-11-26T19:43:51.027Z,100836.50
2023-11-26T19:46:19.632Z,100843.38
2023-11-26T19:48:49.452Z,100842.50
2023-11-26T19:51:19.808Z,100850.19
2023-11-26T19:53:47.964Z,100851.06
2023-11-26T19:56:16.378Z,100851.84
2023-11-26T19:58:47.304Z,100846.69
2023-11-26T20:01:16.198Z,100857.78
2023-11-26T20:03:46.365Z,100857.81
2023-11-26T20:06:14.498Z,100860.38
2023-11-26T20:08:44.371Z,100839.88
2023-11-26T20:11:12.814Z,100859.41
2023-11-26T20:13:40.825Z,100850.84
2023-11-26T20:16:15.139Z,100856.69
2023-11-26T20:18:43.268Z,100868.66
2023-11-26T20:21:11.351Z,100862.69
2023-11-26T20:23:39.367Z,100864.44
2023-11-26T20:26:07.867Z,100875.41
2023-11-26T20:28:37.367Z,100876.19
2023-11-26T20:31:08.938Z,100877.81
2023-11-26T20:33:40.319Z,100858.31
2023-11-26T20:36:17.411Z,100883.84
2023-11-26T20:38:45.401Z,100882.19
2023-11-26T20:41:13.731Z,100880.47
2023-11-26T20:43:41.677Z,100878.72
2023-11-26T20:46:09.689Z,100877.94
2023-11-26T20:48:39.832Z,100892.25
2023-11-26T20:51:08.620Z,100882.09
2023-11-26T20:53:38.423Z,100894.81
2023-11-26T20:56:08.191Z,100891.53
2023-11-26T20:58:36.136Z,100892.25
2023-11-26T21:01:05.030Z,100888.09
2023-11-26T21:03:32.979Z,100892.25
2023-11-26T21:06:03.542Z,100879.38
2023-11-26T21:08:32.948Z,100883.59
2023-11-26T21:11:04.570Z,100890.41
2023-11-26T21:13:33.552Z,100882.63
2023-11-26T21:16:02.027Z,100880.06
2023-11-26T21:18:30.311Z,100875.00
2023-11-26T21:20:58.852Z,100886.06
2023-11-26T21:23:28.969Z,100888.56
2023-11-26T21:25:56.975Z,100888.59
2023-11-26T21:28:25.697Z,100874.94
2023-11-26T21:30:53.685Z,100891.03
2023-11-26T21:33:21.665Z,100886.78
2023-11-26T21:35:49.840Z,100873.13
2023-11-26T21:38:17.718Z,100888.44
2023-11-26T21:40:53.532Z,100899.31
2023-11-26T21:43:29.337Z,100898.50
2023-11-26T21:45:57.308Z,100906.22
2023-11-26T21:48:25.231Z,100905.47
2023-11-26T21:50:53.304Z,100892.66
2023-11-26T21:53:21.198Z,100902.00
2023-11-26T21:55:50.516Z,100915.50
2023-11-26T21:58:18.615Z,100907.84
2023-11-26T22:00:46.659Z,100916.44
2023-11-26T22:03:14.719Z,100913.94
2023-11-26T22:05:42.934Z,100924.03
2023-11-26T22:08:10.878Z,100907.13
2023-11-26T22:10:38.777Z,100910.53
2023-11-26T22:13:08.300Z,100928.38
2023-11-26T22:15:36.328Z,100930.91
2023-11-26T22:18:04.501Z,100937.72
2023-11-26T22:20:32.583Z,100925.06
2023-11-26T22:23:00.974Z,100917.34
2023-11-26T22:25:29.433Z,100921.63
2023-11-26T22:27:57.728Z,100933.44
2023-11-26T22:30:27.028Z,100946.25
2023-11-26T22:32:55.004Z,100936.81
2023-11-26T22:35:25.263Z,100931.09
2023-11-26T22:37:53.190Z,100942.97
2023-11-26T22:40:21.218Z,100957.97
2023-11-26T22:42:49.369Z,100957.13
2023-11-26T22:45:17.615Z,100928.50
2023-11-26T22:47:46.893Z,100941.25
2023-11-26T22:50:17.350Z,100926.09
2023-11-26T22:52:47.395Z,100933.50
2023-11-26T22:55:16.914Z,100940.31
2023-11-26T22:57:46.207Z,100949.72
2023-11-26T23:00:21.974Z,100945.47
2023-11-26T23:02:52.301Z,100925.13
2023-11-26T23:05:20.504Z,100954.88
2023-11-26T23:07:48.537Z,100952.31
2023-11-26T23:10:16.808Z,100944.53
2023-11-26T23:12:44.869Z,100959.94
2023-11-26T23:15:13.126Z,100960.00
2023-11-26T23:17:41.165Z,100957.53
2023-11-26T23:20:11.370Z,100958.44
2023-11-26T23:22:39.409Z,100957.53
2023-11-26T23:25:10.709Z,100954.03
2023-11-26T23:27:40.238Z,100963.31
2023-11-26T23:30:09.181Z,100956.63
2023-11-26T23:32:37.202Z,100965.00
2023-11-26T23:35:05.879Z,100960.06
2023-11-26T23:37:35.223Z,100965.22
2023-11-26T23:40:03.526Z,100962.66
2023-11-26T23:42:31.666Z,100955.06
2023-11-26T23:44:59.742Z,100954.25
2023-11-26T23:47:27.736Z,100958.50
2023-11-26T23:49:55.854Z,100950.00
2023-11-26T23:52:24.301Z,100953.38
2023-11-26T23:54:55.208Z,100961.84
2023-11-26T23:57:24.187Z,100949.03
2023-11-26T23:59:52.136Z,100967.72
